Time;durP1;ratioP1;P1;durP2;ratioP2;P2;SDS_P1;SDS_P2;PMS_P1;PMS_P2;Temp;Humidity;BMP_temperature;BMP_pressure;BME280_temperature;BME280_humidity;BME280_pressure;Samples;Min_cycle;Max_cycle;Signal;HPM_P1;HPM_P2
2022/09/12 04:03:28;;;;;;;4.50;4.07;;;11.20;99.90;;;;;;6218373;22;20208;-63
2022/09/12 04:05:56;;;;;;;6.23;4.90;;;11.20;99.90;;;;;;6248259;22;20224;-63
2022/09/12 04:08:22;;;;;;;5.50;4.97;;;11.20;99.90;;;;;;6246632;23;20149;-63
2022/09/12 04:10:47;;;;;;;6.83;6.17;;;11.10;99.90;;;;;;6245685;23;20517;-62
2022/09/12 04:13:13;;;;;;;6.93;6.23;;;11.10;99.90;;;;;;6242786;23;20177;-63
2022/09/12 04:15:38;;;;;;;6.73;5.67;;;11.00;99.90;;;;;;6215315;23;20174;-64
2022/09/12 04:18:04;;;;;;;7.10;4.60;;;11.00;99.90;;;;;;6214934;23;20520;-62
2022/09/12 04:20:30;;;;;;;6.40;4.97;;;11.00;99.90;;;;;;6215859;23;20157;-64
2022/09/12 04:22:55;;;;;;;6.07;4.47;;;11.00;99.90;;;;;;6215555;23;20184;-63
2022/09/12 04:25:21;;;;;;;4.80;4.40;;;11.00;99.90;;;;;;6215670;23;20639;-63
2022/09/12 04:27:46;;;;;;;4.73;4.23;;;10.90;99.90;;;;;;6216036;23;20153;-63
2022/09/12 04:30:12;;;;;;;5.27;4.77;;;11.00;99.90;;;;;;6215752;23;20145;-64
2022/09/12 04:32:38;;;;;;;4.80;4.30;;;10.90;99.90;;;;;;6214610;23;20204;-63
2022/09/12 04:35:03;;;;;;;3.93;3.53;;;10.90;99.90;;;;;;6214068;23;20219;-62
2022/09/12 04:37:29;;;;;;;6.33;4.10;;;10.90;99.90;;;;;;6215929;23;20149;-63
2022/09/12 04:39:56;;;;;;;5.20;4.70;;;10.90;99.90;;;;;;6215822;23;20427;-63
2022/09/12 04:42:23;;;;;;;4.93;4.53;;;10.90;99.90;;;;;;6215163;23;20160;-63
2022/09/12 04:44:49;;;;;;;5.45;4.70;;;10.80;99.90;;;;;;6215431;23;20252;-63
2022/09/12 04:47:15;;;;;;;6.10;3.72;;;10.80;99.90;;;;;;6215439;23;20134;-63
2022/09/12 04:49:41;;;;;;;4.07;3.78;;;10.80;99.90;;;;;;6215589;23;20231;-64
2022/09/12 04:52:07;;;;;;;5.40;4.77;;;10.80;99.90;;;;;;6215283;23;20193;-63
2022/09/12 04:54:33;;;;;;;3.80;3.30;;;10.80;99.90;;;;;;6215061;23;20172;-64
2022/09/12 04:56:58;;;;;;;5.80;5.00;;;10.80;99.90;;;;;;6189010;23;20639;-64
2022/09/12 04:59:24;;;;;;;5.50;4.90;;;10.80;99.90;;;;;;6215132;23;20149;-63
2022/09/12 05:01:50;;;;;;;5.07;4.50;;;10.80;99.90;;;;;;6215245;23;20200;-64
2022/09/12 05:04:15;;;;;;;5.30;4.80;;;10.70;99.90;;;;;;6215375;23;20173;-64
2022/09/12 05:06:42;;;;;;;4.47;4.07;;;10.70;99.90;;;;;;6214825;23;20230;-64
2022/09/12 05:09:10;;;;;;;5.72;4.65;;;10.70;99.90;;;;;;6215875;23;20179;-64
2022/09/12 05:11:39;;;;;;;5.60;5.10;;;10.70;99.90;;;;;;6215266;23;20165;-64
2022/09/12 05:14:05;;;;;;;5.43;4.20;;;10.80;99.90;;;;;;6215005;23;20229;-64
2022/09/12 05:16:31;;;;;;;6.17;5.10;;;10.80;99.90;;;;;;6215344;23;20455;-64
2022/09/12 05:18:58;;;;;;;5.93;4.72;;;10.80;99.90;;;;;;6215850;23;20149;-64
2022/09/12 05:21:24;;;;;;;4.95;4.28;;;10.80;99.90;;;;;;6215312;23;20200;-64
2022/09/12 05:23:55;;;;;;;4.22;3.83;;;10.80;99.90;;;;;;6215158;23;20166;-64
2022/09/12 05:26:22;;;;;;;9.25;5.07;;;10.80;99.90;;;;;;6215661;23;20558;-64
2022/09/12 05:28:49;;;;;;;28.83;5.40;;;10.90;99.90;;;;;;6216386;23;20138;-64
2022/09/12 05:31:18;;;;;;;8.85;5.38;;;10.90;99.90;;;;;;6217209;23;20240;-63
2022/09/12 05:33:46;;;;;;;5.43;4.30;;;10.90;99.90;;;;;;6216747;23;20173;-64
2022/09/12 05:36:16;;;;;;;6.50;5.10;;;11.00;99.90;;;;;;6191100;23;20233;-64
2022/09/12 05:38:41;;;;;;;5.13;4.10;;;11.00;99.90;;;;;;6217284;23;20165;-64
2022/09/12 05:41:13;;;;;;;5.87;3.73;;;11.10;99.90;;;;;;6217124;23;20147;-64
2022/09/12 05:43:41;;;;;;;4.47;4.03;;;11.10;99.90;;;;;;6216859;23;20236;-64
2022/09/12 05:46:18;;;;;;;4.85;4.35;;;11.20;99.90;;;;;;6190565;23;20226;-64
2022/09/12 05:48:45;;;;;;;7.32;5.65;;;11.30;99.90;;;;;;6216623;23;20147;-64
2022/09/12 05:51:18;;;;;;;10.15;6.60;;;11.30;99.90;;;;;;6217402;23;20151;-64
2022/09/12 05:53:45;;;;;;;5.30;4.80;;;11.30;99.90;;;;;;6216286;23;20511;-64
2022/09/12 05:56:16;;;;;;;6.38;5.57;;;11.40;99.90;;;;;;6217185;23;20182;-65
2022/09/12 05:58:45;;;;;;;7.00;5.47;;;11.50;99.90;;;;;;6216899;23;20134;-64
2022/09/12 06:01:16;;;;;;;7.15;5.32;;;11.50;99.90;;;;;;6216515;23;20161;-64
2022/09/12 06:03:50;;;;;;;5.90;5.30;;;11.60;99.90;;;;;;6216306;23;20163;-65
2022/09/12 06:06:18;;;;;;;6.87;6.00;;;11.80;99.90;;;;;;6216365;23;20395;-64
2022/09/12 06:08:47;;;;;;;6.60;5.90;;;11.90;99.90;;;;;;6190303;23;20382;-64
2022/09/12 06:11:15;;;;;;;6.83;5.17;;;12.00;99.90;;;;;;6217097;23;20448;-64
2022/09/12 06:13:42;;;;;;;11.77;6.20;;;12.20;99.90;;;;;;6216217;23;20403;-63
2022/09/12 06:16:19;;;;;;;8.90;6.07;;;12.30;99.90;;;;;;6216888;23;20698;-64
2022/09/12 06:18:49;;;;;;;6.53;5.20;;;12.40;99.90;;;;;;6190635;23;20462;-63
2022/09/12 06:21:15;;;;;;;7.97;5.37;;;12.60;99.90;;;;;;6190282;23;20378;-64
2022/09/12 06:23:41;;;;;;;7.10;5.40;;;12.80;99.90;;;;;;6216686;23;20446;-64
2022/09/12 06:26:09;;;;;;;8.90;6.10;;;12.80;99.90;;;;;;6190277;23;20383;-64
2022/09/12 06:28:38;;;;;;;7.47;6.20;;;13.00;99.90;;;;;;6216910;23;20368;-64
2022/09/12 06:31:05;;;;;;;7.37;6.50;;;13.20;99.90;;;;;;6190234;23;20386;-64
2022/09/12 06:33:33;;;;;;;7.70;5.73;;;13.40;99.90;;;;;;6216008;23;20430;-64
2022/09/12 06:36:08;;;;;;;10.57;7.87;;;13.50;99.90;;;;;;6216961;23;20379;-64
2022/09/12 06:38:34;;;;;;;9.30;6.53;;;13.70;99.90;;;;;;6216615;23;20677;-64
2022/09/12 06:41:03;;;;;;;8.70;5.90;;;13.90;99.90;;;;;;6216611;23;20372;-64
2022/09/12 06:43:29;;;;;;;7.70;6.20;;;14.10;99.90;;;;;;6216325;23;20396;-65
2022/09/12 06:45:55;;;;;;;9.53;5.60;;;14.30;99.90;;;;;;6216649;23;20879;-65
2022/09/12 06:48:20;;;;;;;9.83;6.80;;;14.40;99.90;;;;;;6216908;23;20149;-64
2022/09/12 06:51:03;;;;;;;7.13;6.20;;;14.30;99.90;;;;;;6216589;23;20455;-65
2022/09/12 06:53:32;;;;;;;7.80;7.10;;;14.20;99.90;;;;;;6215953;23;20185;-64
2022/09/12 06:56:05;;;;;;;7.50;6.10;;;14.10;99.90;;;;;;6216509;23;20825;-65
2022/09/12 06:58:32;;;;;;;6.60;5.90;;;14.10;99.90;;;;;;6191069;23;20455;-65
2022/09/12 07:01:03;;;;;;;8.23;5.93;;;14.10;99.90;;;;;;6216775;23;20833;-64
2022/09/12 07:03:29;;;;;;;6.80;5.87;;;14.20;99.90;;;;;;6215969;23;20396;-64
2022/09/12 07:05:55;;;;;;;7.50;6.20;;;14.40;99.90;;;;;;6216185;23;20403;-65
2022/09/12 07:08:20;;;;;;;9.97;6.80;;;14.70;99.90;;;;;;6216710;23;20377;-65
2022/09/12 07:10:46;;;;;;;7.00;5.90;;;14.90;99.90;;;;;;6216292;23;20150;-65
2022/09/12 07:13:12;;;;;;;6.93;5.63;;;15.10;99.90;;;;;;6215773;23;20257;-64
2022/09/12 07:15:38;;;;;;;7.93;6.43;;;15.30;99.90;;;;;;6216749;23;20154;-63
2022/09/12 07:18:04;;;;;;;6.13;5.53;;;15.60;99.90;;;;;;6216225;23;20371;-65
2022/09/12 07:20:31;;;;;;;5.77;5.27;;;15.80;99.90;;;;;;6216535;23;20146;-65
2022/09/12 07:22:58;;;;;;;5.90;5.30;;;16.00;99.90;;;;;;6216320;23;20185;-64
2022/09/12 07:25:23;;;;;;;6.60;5.57;;;16.00;99.90;;;;;;6216607;23;20390;-65
2022/09/12 07:27:51;;;;;;;8.57;6.30;;;16.10;99.90;;;;;;6216176;23;20375;-64
2022/09/12 07:30:17;;;;;;;7.50;6.70;;;16.30;99.90;;;;;;6216380;23;20234;-65
2022/09/12 07:32:43;;;;;;;6.90;6.20;;;16.40;99.90;;;;;;6216158;23;20420;-65
2022/09/12 07:35:08;;;;;;;6.17;5.57;;;16.60;99.90;;;;;;6216469;23;20404;-65
2022/09/12 07:37:34;;;;;;;6.10;5.20;;;16.80;99.90;;;;;;6216416;23;20203;-65
2022/09/12 07:40:01;;;;;;;5.63;5.00;;;17.10;99.90;;;;;;6216193;23;20146;-65
2022/09/12 07:42:26;;;;;;;7.67;6.37;;;17.30;99.90;;;;;;6215523;23;20157;-66
2022/09/12 07:44:52;;;;;;;5.60;5.10;;;17.50;99.90;;;;;;6215665;23;20404;-66
2022/09/12 07:47:18;;;;;;;8.07;6.53;;;17.60;99.90;;;;;;6216403;23;20158;-66
2022/09/12 07:49:43;;;;;;;8.33;6.27;;;17.70;99.90;;;;;;6216520;23;20153;-66
2022/09/12 07:52:09;;;;;;;8.03;6.17;;;17.80;99.90;;;;;;6215539;23;20552;-66
2022/09/12 07:54:35;;;;;;;7.37;6.13;;;18.00;99.90;;;;;;6215466;23;20256;-66
2022/09/12 07:57:01;;;;;;;10.93;5.40;;;18.50;99.90;;;;;;6215936;23;20153;-66
2022/09/12 07:59:27;;;;;;;6.60;5.27;;;19.30;99.90;;;;;;6216183;23;20398;-66
2022/09/12 08:01:53;;;;;;;5.30;4.73;;;20.50;99.90;;;;;;6216512;23;20153;-67
2022/09/12 08:04:20;;;;;;;6.37;5.73;;;;;;;;;;6215821;23;20427;-67
2022/09/12 08:06:46;;;;;;;5.93;5.33;;;;;;;;;;6215795;23;20395;-67
2022/09/12 08:09:14;;;;;;;5.90;5.40;;;;;;;;;;6216189;23;20394;-67
2022/09/12 08:11:40;;;;;;;4.50;4.20;;;;;;;;;;6215462;23;20862;-65
2022/09/12 08:14:06;;;;;;;5.23;4.80;;;;;;;;;;6188570;23;20484;-65
2022/09/12 08:16:32;;;;;;;5.20;4.70;;;21.90;99.90;;;;;;6215832;23;20703;-66
2022/09/12 08:19:00;;;;;;;5.67;5.17;;;27.70;92.50;;;;;;6215878;23;20369;-65
2022/09/12 08:21:28;;;;;;;5.70;5.20;;;28.30;91.10;;;;;;6215745;23;20435;-65
2022/09/12 08:23:59;;;;;;;5.17;4.67;;;29.00;87.70;;;;;;6215067;23;20975;-65
2022/09/12 08:26:25;;;;;;;4.60;4.20;;;29.50;85.40;;;;;;6215938;23;20356;-65
2022/09/12 08:28:52;;;;;;;3.80;3.50;;;30.20;83.10;;;;;;6216237;23;20335;-66
2022/09/12 08:31:20;;;;;;;4.10;3.80;;;30.60;81.60;;;;;;6216018;23;20350;-66
2022/09/12 08:33:45;;;;;;;4.80;4.27;;;31.30;80.60;;;;;;6215264;23;20396;-66
2022/09/12 08:36:13;;;;;;;3.73;3.53;;;31.90;77.20;;;;;;6189034;23;20377;-67
2022/09/12 08:38:42;;;;;;;3.43;3.23;;;31.90;76.90;;;;;;6215731;23;20578;-65
2022/09/12 08:41:11;;;;;;;3.20;3.00;;;32.00;75.20;;;;;;6215705;23;20867;-65
2022/09/12 08:44:08;;;;;;;3.17;2.97;;;32.10;72.60;;;;;;6215411;23;20393;-66
2022/09/12 08:47:01;;;;;;;3.60;3.40;;;32.10;73.50;;;;;;6215930;23;20395;-65
2022/09/12 08:49:33;;;;;;;4.53;3.13;;;32.80;72.10;;;;;;6215725;23;20365;-65
2022/09/12 08:52:05;;;;;;;2.87;2.77;;;33.60;69.70;;;;;;6215922;23;20407;-65
2022/09/12 08:54:32;;;;;;;3.43;3.23;;;34.10;66.80;;;;;;6214886;23;20396;-67
2022/09/12 08:57:02;;;;;;;3.60;3.30;;;34.70;65.40;;;;;;6215851;23;20373;-66
2022/09/12 08:59:36;;;;;;;2.70;2.60;;;35.00;63.80;;;;;;6215551;23;20804;-67
2022/09/12 09:02:22;;;;;;;3.30;3.10;;;35.00;62.80;;;;;;6215624;23;20380;-66
2022/09/12 09:04:51;;;;;;;2.90;2.70;;;35.20;60.60;;;;;;6217363;23;20404;-66
2022/09/12 09:07:19;;;;;;;3.37;3.17;;;35.20;61.80;;;;;;6217730;23;20729;-65
2022/09/12 09:10:05;;;;;;;3.20;3.07;;;35.20;59.80;;;;;;6217611;23;20392;-66
2022/09/12 09:12:48;;;;;;;2.80;2.60;;;35.00;59.00;;;;;;6216992;23;20404;-66
2022/09/12 09:15:51;;;;;;;3.40;3.20;;;34.50;59.80;;;;;;6217690;23;20714;-66
2022/09/12 09:18:22;;;;;;;3.43;3.23;;;34.50;58.80;;;;;;6217631;23;20361;-66
2022/09/12 09:20:50;;;;;;;4.63;3.03;;;34.30;59.10;;;;;;6217743;23;20383;-66
2022/09/12 09:23:24;;;;;;;2.97;2.77;;;34.20;59.80;;;;;;6217236;23;20674;-66
2022/09/12 09:26:07;;;;;;;3.47;3.17;;;34.40;60.10;;;;;;6217872;23;20348;-67
2022/09/12 09:28:36;;;;;;;3.40;3.20;;;34.90;58.90;;;;;;6217167;23;20420;-66
2022/09/12 09:31:02;;;;;;;3.00;2.70;;;34.50;58.50;;;;;;6217710;23;20507;-66
2022/09/12 09:33:33;;;;;;;2.90;2.70;;;34.40;59.30;;;;;;6217088;23;20428;-66
2022/09/12 09:36:10;;;;;;;3.00;2.80;;;34.10;59.30;;;;;;6217434;23;20353;-66
2022/09/12 09:39:04;;;;;;;3.10;2.90;;;33.80;59.30;;;;;;6217320;23;20353;-65
2022/09/12 09:41:49;;;;;;;2.70;2.50;;;33.40;60.30;;;;;;6217166;23;20356;-66
2022/09/12 09:44:15;;;;;;;3.33;3.13;;;33.40;60.80;;;;;;6216943;23;20384;-67
2022/09/12 09:46:40;;;;;;;3.13;2.90;;;33.80;59.60;;;;;;6217457;23;20372;-67
2022/09/12 09:49:12;;;;;;;2.70;2.50;;;34.10;58.90;;;;;;6217541;23;20435;-67
2022/09/12 09:51:39;;;;;;;2.90;2.70;;;34.00;59.10;;;;;;6217385;23;20207;-66
2022/09/12 09:54:17;;;;;;;2.80;2.60;;;34.00;60.30;;;;;;6217009;23;20380;-66
2022/09/12 09:56:43;;;;;;;2.87;2.67;;;34.10;58.90;;;;;;6217177;23;20353;-66
2022/09/12 09:59:09;;;;;;;2.80;2.60;;;34.10;57.60;;;;;;6217175;23;20851;-67
2022/09/12 10:01:34;;;;;;;2.90;2.70;;;34.00;58.50;;;;;;6217396;23;20403;-65
2022/09/12 10:04:00;;;;;;;2.60;2.50;;;34.00;58.30;;;;;;6216519;23;20856;-67
2022/09/12 10:06:31;;;;;;;2.20;2.10;;;34.00;57.90;;;;;;6216823;23;20204;-66
2022/09/12 10:09:18;;;;;;;2.40;2.30;;;34.10;57.80;;;;;;6190492;23;20521;-67
2022/09/12 10:11:43;;;;;;;2.80;2.60;;;34.10;57.90;;;;;;6217170;23;20368;-66
2022/09/12 10:14:29;;;;;;;2.23;2.00;;;34.10;56.40;;;;;;6216163;23;20392;-65
2022/09/12 10:16:56;;;;;;;2.07;1.97;;;34.20;56.20;;;;;;6217058;23;20184;-65
2022/09/12 10:19:39;;;;;;;2.77;2.57;;;34.60;56.00;;;;;;6216864;23;20344;-66
2022/09/12 10:22:06;;;;;;;3.90;2.60;;;34.80;56.20;;;;;;6216786;23;20405;-66
2022/09/12 10:24:45;;;;;;;2.77;2.57;;;34.90;55.40;;;;;;6216640;23;20455;-66
2022/09/12 10:27:11;;;;;;;2.27;2.17;;;34.80;55.10;;;;;;6191383;23;20381;-66
2022/09/12 10:29:48;;;;;;;2.80;2.60;;;33.70;56.40;;;;;;6216866;23;20479;-66
2022/09/12 10:32:28;;;;;;;4.77;4.33;;;33.20;57.20;;;;;;6190091;23;20221;-66
2022/09/12 10:35:00;;;;;;;2.80;2.60;;;33.20;57.50;;;;;;6216650;23;20389;-65
2022/09/12 10:37:33;;;;;;;2.10;2.00;;;33.00;57.20;;;;;;6216841;23;20369;-66
2022/09/12 10:40:01;;;;;;;1.93;1.83;;;32.90;57.30;;;;;;6217501;23;20404;-66
2022/09/12 10:42:50;;;;;;;3.10;2.40;;;32.90;56.80;;;;;;6216586;23;20487;-66
2022/09/12 10:45:24;;;;;;;2.43;2.33;;;33.10;56.40;;;;;;6216622;23;20431;-67
2022/09/12 10:47:54;;;;;;;2.73;2.53;;;32.80;57.80;;;;;;6216480;23;20369;-65
2022/09/12 10:50:29;;;;;;;3.60;2.60;;;32.40;58.10;;;;;;6216601;23;20331;-65
2022/09/12 10:53:18;;;;;;;2.17;2.07;;;32.30;57.90;;;;;;6189738;23;20408;-65
2022/09/12 10:55:52;;;;;;;2.80;2.60;;;32.20;57.80;;;;;;6197981;23;20366;-65
2022/09/12 10:58:30;;;;;;;2.47;2.37;;;31.90;58.70;;;;;;6217499;23;20646;-66
2022/09/12 11:01:17;;;;;;;2.40;2.20;;;31.60;58.40;;;;;;6216640;23;20394;-65
2022/09/12 11:04:00;;;;;;;2.57;2.37;;;31.30;59.00;;;;;;6216288;23;20399;-65
2022/09/12 11:06:40;;;;;;;2.90;2.70;;;30.80;59.60;;;;;;6216494;23;20369;-65
2022/09/12 11:09:16;;;;;;;2.43;2.27;;;30.20;59.80;;;;;;6216831;23;20327;-67
2022/09/12 11:12:12;;;;;;;2.00;1.90;;;29.40;62.40;;;;;;6216615;23;20353;-67
2022/09/12 11:15:00;;;;;;;2.07;1.97;;;28.70;64.20;;;;;;6194763;23;20892;-67
2022/09/12 11:17:47;;;;;;;2.10;2.00;;;28.10;65.50;;;;;;6216592;23;20712;-67
2022/09/12 11:20:49;;;;;;;2.20;2.10;;;27.60;66.00;;;;;;6216735;23;20384;-65
2022/09/12 11:23:27;;;;;;;2.20;2.00;;;27.20;68.00;;;;;;6215837;23;20736;-66
2022/09/12 11:26:14;;;;;;;2.17;1.97;;;26.90;69.00;;;;;;6190173;23;20821;-65
2022/09/12 11:29:02;;;;;;;1.87;1.77;;;26.70;67.90;;;;;;6216692;23;20360;-66
2022/09/12 11:32:04;;;;;;;2.20;1.70;;;26.50;67.70;;;;;;6216169;23;20691;-66
2022/09/12 11:34:44;;;;;;;1.70;1.60;;;26.30;67.30;;;;;;6215811;23;20704;-66
2022/09/12 11:37:31;;;;;;;2.60;2.40;;;26.20;67.00;;;;;;6216211;23;20431;-66
2022/09/12 11:40:16;;;;;;;1.93;1.83;;;26.00;66.60;;;;;;6216508;23;20371;-66
2022/09/12 11:42:45;;;;;;;2.03;1.93;;;25.80;67.60;;;;;;6192871;23;20472;-65
2022/09/12 11:45:23;;;;;;;1.80;1.67;;;25.60;68.50;;;;;;6216042;23;20725;-67
2022/09/12 11:47:53;;;;;;;1.60;1.50;;;25.60;68.90;;;;;;6216178;23;20440;-67
2022/09/12 11:50:25;;;;;;;1.90;1.80;;;25.60;68.70;;;;;;6215879;23;20357;-67
2022/09/12 11:52:53;;;;;;;1.77;1.67;;;25.60;69.40;;;;;;6215549;23;20368;-67
2022/09/12 11:55:28;;;;;;;2.30;2.20;;;25.70;67.50;;;;;;6216227;23;20391;-67
2022/09/12 11:57:57;;;;;;;1.97;1.87;;;25.60;67.70;;;;;;6215918;23;20807;-66
2022/09/12 12:00:48;;;;;;;2.00;1.90;;;25.60;67.80;;;;;;6215750;23;20344;-67
2022/09/12 12:03:21;;;;;;;1.90;1.80;;;25.70;67.70;;;;;;6213705;23;20430;-65
2022/09/12 12:06:09;;;;;;;1.90;1.80;;;25.80;67.40;;;;;;6215230;23;20420;-66
2022/09/12 12:08:40;;;;;;;2.30;2.10;;;25.80;66.10;;;;;;6188616;23;20371;-66
2022/09/12 12:11:07;;;;;;;1.27;1.20;;;25.60;66.20;;;;;;6214391;23;20371;-65
2022/09/12 12:13:38;;;;;;;1.50;1.50;;;25.40;68.10;;;;;;6215178;23;20673;-67
2022/09/12 12:16:20;;;;;;;1.87;1.77;;;25.30;67.40;;;;;;6215793;23;20405;-66
2022/09/12 12:18:57;;;;;;;1.50;1.40;;;25.20;66.90;;;;;;6215312;23;20365;-68
2022/09/12 12:21:28;;;;;;;1.80;1.70;;;25.10;67.10;;;;;;6215695;23;20364;-69
2022/09/12 12:24:12;;;;;;;2.00;1.83;;;25.10;67.50;;;;;;6215043;23;20379;-68
2022/09/12 12:26:41;;;;;;;4.90;1.50;;;25.10;67.70;;;;;;6215418;23;20386;-67
2022/09/12 12:29:16;;;;;;;1.70;1.23;;;25.10;67.60;;;;;;6215355;23;20367;-66
2022/09/12 12:32:02;;;;;;;1.80;1.67;;;25.10;63.60;;;;;;6215256;23;20453;-67
2022/09/12 12:34:32;;;;;;;1.10;1.10;;;25.10;63.60;;;;;;6214756;23;20388;-64
2022/09/12 12:37:18;;;;;;;0.90;0.90;;;25.10;63.70;;;;;;6215284;23;20848;-65
2022/09/12 12:39:48;;;;;;;1.37;1.27;;;25.10;63.70;;;;;;6215179;23;20401;-65
2022/09/12 12:42:34;;;;;;;1.40;1.37;;;25.00;64.10;;;;;;6215599;23;20504;-66
2022/09/12 12:45:19;;;;;;;1.33;1.30;;;25.00;64.40;;;;;;6215127;23;20388;-66
2022/09/12 12:47:50;;;;;;;1.10;1.10;;;25.00;63.80;;;;;;6215254;23;20332;-66
2022/09/12 12:50:18;;;;;;;1.23;1.13;;;24.90;63.50;;;;;;6215374;23;20365;-65
2022/09/12 12:53:08;;;;;;;1.13;1.10;;;24.90;64.30;;;;;;6214910;23;20376;-66
2022/09/12 12:55:43;;;;;;;0.93;0.93;;;25.00;65.00;;;;;;6215604;23;20340;-66
2022/09/12 12:58:26;;;;;;;1.60;1.50;;;25.00;63.30;;;;;;6215545;23;20676;-66
2022/09/12 13:01:03;;;;;;;1.57;1.47;;;25.00;64.80;;;;;;6215109;23;20448;-66
2022/09/12 13:03:31;;;;;;;1.50;1.40;;;25.00;64.30;;;;;;6214679;23;20867;-65
2022/09/12 13:06:04;;;;;;;1.37;1.33;;;25.00;64.40;;;;;;6214890;23;20484;-66
2022/09/12 13:08:32;;;;;;;1.37;1.10;;;25.10;66.20;;;;;;6188971;23;20837;-67
2022/09/12 13:11:09;;;;;;;1.27;1.27;;;25.10;64.40;;;;;;6215600;23;20463;-66
2022/09/12 13:13:49;;;;;;;1.43;1.10;;;25.20;60.70;;;;;;6215102;23;20405;-67
2022/09/12 13:16:37;;;;;;;1.27;1.17;;;25.20;60.30;;;;;;6215731;23;20361;-67
2022/09/12 13:19:18;;;;;;;1.13;1.13;;;25.30;60.20;;;;;;6215280;23;21372;-70
2022/09/12 13:22:04;;;;;;;1.50;1.40;;;25.30;61.10;;;;;;6215548;23;20369;-66
2022/09/12 13:24:29;;;;;;;1.00;1.00;;;25.20;61.00;;;;;;6214834;23;20391;-65
2022/09/12 13:26:58;;;;;;;1.13;1.13;;;25.30;61.50;;;;;;6215771;23;20693;-67
2022/09/12 13:29:26;;;;;;;1.43;1.33;;;25.30;61.20;;;;;;6215239;23;20364;-66
2022/09/12 13:31:55;;;;;;;0.90;0.90;;;25.30;60.80;;;;;;6215135;23;20383;-67
2022/09/12 13:34:33;;;;;;;1.87;1.07;;;25.30;59.70;;;;;;6214776;23;20382;-67
2022/09/12 13:37:52;;;;;;;0.80;0.80;;;25.30;59.60;;;;;;6215715;23;20467;-67
2022/09/12 13:40:33;;;;;;;0.80;0.80;;;25.30;59.90;;;;;;6208829;23;20932;-65
2022/09/12 13:43:16;;;;;;;0.97;0.97;;;25.30;59.80;;;;;;6214781;23;20404;-66
2022/09/12 13:45:45;;;;;;;1.00;1.00;;;25.30;58.10;;;;;;6187805;23;20381;-64
2022/09/12 13:48:21;;;;;;;1.20;1.20;;;25.30;58.30;;;;;;6214821;23;20343;-65
2022/09/12 13:50:54;;;;;;;0.90;0.90;;;25.30;58.50;;;;;;6215790;23;20343;-65
2022/09/12 13:53:24;;;;;;;1.17;1.17;;;25.30;59.30;;;;;;6216882;23;20869;-64
2022/09/12 13:55:57;;;;;;;1.00;0.90;;;25.30;59.50;;;;;;6216461;23;20683;-66
2022/09/12 13:58:24;;;;;;;1.50;1.40;;;25.30;60.50;;;;;;6217522;23;20336;-65
2022/09/12 14:01:14;;;;;;;1.20;1.10;;;25.30;60.20;;;;;;6216986;23;20375;-65
2022/09/12 14:06:27;;;;;;;1.10;0.90;;;25.30;59.30;;;;;;6216959;23;20429;-65
2022/09/12 14:08:55;;;;;;;1.07;0.90;;;25.30;58.90;;;;;;6217255;23;20351;-65
2022/09/12 14:11:29;;;;;;;0.90;0.90;;;25.30;59.00;;;;;;6216987;23;20751;-65
2022/09/12 14:13:56;;;;;;;0.90;0.90;;;25.20;58.30;;;;;;6216412;23;20395;-66
2022/09/12 14:16:24;;;;;;;0.80;0.80;;;25.20;57.60;;;;;;6216893;23;20363;-66
2022/09/12 14:18:50;;;;;;;0.83;0.83;;;25.20;57.60;;;;;;6217305;23;20676;-65
2022/09/12 14:21:29;;;;;;;1.17;1.07;;;25.10;57.80;;;;;;6216889;23;20376;-66
2022/09/12 14:23:56;;;;;;;0.90;0.90;;;25.10;58.50;;;;;;6216747;23;20443;-66
2022/09/12 14:26:23;;;;;;;0.87;0.87;;;25.00;58.50;;;;;;6216732;23;20372;-67
2022/09/12 14:28:49;;;;;;;0.90;0.90;;;25.00;58.40;;;;;;6217161;23;20365;-64
2022/09/12 14:31:27;;;;;;;0.60;0.60;;;25.00;58.60;;;;;;6216827;23;20427;-65
2022/09/12 14:33:56;;;;;;;0.90;0.90;;;25.10;58.30;;;;;;6216199;23;20365;-66
2022/09/12 14:36:41;;;;;;;1.20;1.10;;;25.00;57.80;;;;;;6216759;23;20344;-65
2022/09/12 14:39:20;;;;;;;0.80;0.80;;;25.00;57.90;;;;;;6215259;23;20381;-65
2022/09/12 14:41:46;;;;;;;0.90;0.90;;;25.00;58.00;;;;;;6216246;23;20415;-66
2022/09/12 14:44:24;;;;;;;1.10;1.10;;;25.00;59.30;;;;;;6215832;23;20366;-66
2022/09/12 14:46:50;;;;;;;0.90;0.90;;;25.00;60.00;;;;;;6216173;23;20352;-65
2022/09/12 14:49:25;;;;;;;0.83;0.83;;;25.00;58.90;;;;;;6216364;23;20365;-66
2022/09/12 14:51:55;;;;;;;3.97;2.90;;;25.00;58.30;;;;;;6216952;23;20726;-65
2022/09/12 14:54:28;;;;;;;0.97;0.97;;;25.00;58.50;;;;;;6216000;23;20356;-65
2022/09/12 14:56:59;;;;;;;5.03;4.53;;;25.00;58.00;;;;;;6216256;23;20752;-66
2022/09/12 14:59:35;;;;;;;1.30;1.30;;;24.90;58.40;;;;;;6216260;23;20730;-64
2022/09/12 15:02:19;;;;;;;1.07;0.80;;;24.90;58.70;;;;;;6215954;23;20400;-66
2022/09/12 15:05:07;;;;;;;1.10;1.00;;;25.00;58.30;;;;;;6216150;23;20391;-65
2022/09/12 15:07:36;;;;;;;1.00;1.00;;;24.90;58.30;;;;;;6214828;23;20737;-67
2022/09/12 15:10:05;;;;;;;1.17;1.13;;;24.90;58.00;;;;;;6216368;23;20506;-66
2022/09/12 15:12:31;;;;;;;0.90;0.90;;;24.80;58.60;;;;;;6215006;23;20377;-65
2022/09/12 15:15:13;;;;;;;0.80;0.80;;;24.80;59.20;;;;;;6216525;23;20415;-67
2022/09/12 15:17:39;;;;;;;1.10;1.10;;;24.80;58.80;;;;;;6216354;23;20162;-66
2022/09/12 15:20:05;;;;;;;1.00;0.90;;;24.70;59.40;;;;;;6215834;23;20383;-67
2022/09/12 15:22:32;;;;;;;1.00;1.00;;;24.80;59.60;;;;;;6215024;23;20173;-67
2022/09/12 15:24:58;;;;;;;1.57;1.47;;;24.70;59.70;;;;;;6216281;23;20393;-65
2022/09/12 15:27:25;;;;;;;1.37;1.27;;;24.70;60.40;;;;;;6216300;23;20415;-71
2022/09/12 15:29:51;;;;;;;0.87;0.87;;;24.70;60.90;;;;;;6216169;23;20369;-65
2022/09/12 15:32:25;;;;;;;1.30;1.07;;;24.60;60.30;;;;;;6215384;23;20383;-65
2022/09/12 15:34:51;;;;;;;1.23;1.13;;;24.60;60.40;;;;;;6215520;23;20393;-66
2022/09/12 15:37:19;;;;;;;1.00;1.00;;;24.60;59.90;;;;;;6189387;23;20793;-66
2022/09/12 15:39:45;;;;;;;0.87;0.87;;;24.60;59.70;;;;;;6215853;23;20453;-66
2022/09/12 15:42:12;;;;;;;0.90;0.90;;;24.50;60.40;;;;;;6216356;23;20866;-65
2022/09/12 15:44:38;;;;;;;1.47;1.30;;;24.40;60.40;;;;;;6215911;23;20388;-64
2022/09/12 15:47:04;;;;;;;1.10;1.10;;;24.40;60.40;;;;;;6216122;23;20857;-64
2022/09/12 15:49:30;;;;;;;1.17;1.13;;;24.40;61.10;;;;;;6215978;23;20372;-65
2022/09/12 15:51:56;;;;;;;1.53;1.43;;;24.40;61.50;;;;;;6215799;23;20431;-62
2022/09/12 15:54:22;;;;;;;1.57;1.00;;;24.40;62.00;;;;;;6215492;23;20619;-62
2022/09/12 15:56:50;;;;;;;1.27;1.27;;;24.40;62.40;;;;;;6215903;23;20165;-62
2022/09/12 15:59:16;;;;;;;1.00;1.00;;;24.40;62.90;;;;;;6215677;23;20145;-62
2022/09/12 16:01:41;;;;;;;1.30;1.30;;;24.40;62.80;;;;;;6215514;23;20381;-62
2022/09/12 16:04:24;;;;;;;1.60;1.37;;;24.40;62.60;;;;;;6214985;23;20165;-63
2022/09/12 16:06:50;;;;;;;1.27;1.27;;;24.40;63.30;;;;;;6215762;23;20613;-66
2022/09/12 16:09:16;;;;;;;1.07;1.07;;;24.30;63.30;;;;;;6215570;23;20403;-68
2022/09/12 16:11:42;;;;;;;1.13;1.13;;;24.30;63.50;;;;;;6214672;23;20808;-67
2022/09/12 16:14:12;;;;;;;1.23;1.13;;;24.20;63.20;;;;;;6214163;23;20389;-67
2022/09/12 16:16:37;;;;;;;1.47;1.20;;;24.30;62.90;;;;;;6215241;23;20415;-65
2022/09/12 16:19:03;;;;;;;1.17;1.17;;;24.20;63.60;;;;;;6215639;23;20360;-65
2022/09/12 16:21:29;;;;;;;1.50;1.40;;;24.20;63.50;;;;;;6214973;23;20185;-65
2022/09/12 16:23:55;;;;;;;1.70;1.60;;;24.10;63.30;;;;;;6214913;23;20212;-65
2022/09/12 16:26:20;;;;;;;1.20;1.20;;;24.10;64.00;;;;;;6215410;23;20370;-63
2022/09/12 16:28:46;;;;;;;1.50;1.40;;;24.00;64.30;;;;;;6215145;23;20581;-62
2022/09/12 16:31:12;;;;;;;2.03;1.67;;;24.00;64.40;;;;;;6215152;23;20161;-62
2022/09/12 16:33:39;;;;;;;1.10;1.00;;;23.90;64.80;;;;;;6214742;23;20199;-63
2022/09/12 16:36:13;;;;;;;1.20;1.20;;;23.90;65.40;;;;;;6215420;23;20404;-65
2022/09/12 16:38:43;;;;;;;1.40;1.30;;;23.80;66.00;;;;;;6215127;23;20882;-64
2022/09/12 16:41:10;;;;;;;1.43;1.33;;;23.80;67.00;;;;;;6215570;23;20372;-65
2022/09/12 16:43:36;;;;;;;1.20;1.20;;;23.80;67.20;;;;;;6214929;23;20398;-63
2022/09/12 16:46:09;;;;;;;1.13;1.10;;;23.70;67.60;;;;;;6215099;23;20373;-63
2022/09/12 16:48:34;;;;;;;1.20;1.20;;;23.70;68.10;;;;;;6215704;23;20350;-64
2022/09/12 16:51:02;;;;;;;1.40;1.30;;;23.60;68.30;;;;;;6215245;23;20465;-62
2022/09/12 16:53:32;;;;;;;1.40;1.30;;;23.60;68.80;;;;;;6188402;23;20227;-62
2022/09/12 16:55:58;;;;;;;1.50;1.40;;;23.50;68.80;;;;;;6215541;23;20381;-63
2022/09/12 16:58:24;;;;;;;1.17;1.07;;;23.50;68.80;;;;;;6214864;23;20367;-62
2022/09/12 17:00:59;;;;;;;1.70;1.60;;;23.40;69.40;;;;;;6215210;23;20147;-63
2022/09/12 17:03:25;;;;;;;1.63;1.53;;;23.40;69.90;;;;;;6214739;23;20412;-63
2022/09/12 17:06:18;;;;;;;1.80;1.70;;;23.30;70.60;;;;;;6215405;23;20391;-61
2022/09/12 17:08:47;;;;;;;1.77;1.67;;;23.20;71.30;;;;;;6215152;23;20133;-63
2022/09/12 17:11:17;;;;;;;1.30;1.30;;;23.10;72.10;;;;;;6214969;23;20434;-63
2022/09/12 17:13:51;;;;;;;1.60;1.50;;;23.10;72.50;;;;;;6214967;23;20395;-66
2022/09/12 17:16:18;;;;;;;3.30;1.60;;;23.00;73.40;;;;;;6215267;23;20364;-64